createdAt,value
2018-08-18T00:01:11.773Z,22.30
2018-08-18T00:03:39.164Z,22.20
2018-08-18T00:06:06.724Z,22.00
2018-08-18T00:08:34.157Z,22.20
2018-08-18T00:11:02.893Z,22.10
2018-08-18T00:13:39.763Z,21.90
2018-08-18T00:16:07.252Z,22.00
2018-08-18T00:18:34.665Z,21.90
2018-08-18T00:21:02.127Z,21.90
2018-08-18T00:23:29.612Z,21.90
2018-08-18T00:25:57.081Z,21.70
2018-08-18T00:28:25.301Z,21.50
2018-08-18T00:30:53.183Z,21.70
2018-08-18T00:33:20.569Z,21.50
2018-08-18T00:35:48.160Z,21.50
2018-08-18T00:38:15.724Z,21.50
2018-08-18T00:40:43.149Z,21.60
2018-08-18T00:43:10.665Z,21.60
2018-08-18T00:45:38.085Z,21.60
2018-08-18T00:48:05.483Z,21.60
2018-08-18T00:50:40.099Z,21.70
2018-08-18T00:53:09.654Z,21.70
2018-08-18T00:55:37.553Z,21.60
2018-08-18T00:58:07.345Z,21.60
2018-08-18T01:00:34.830Z,21.60
2018-08-18T01:03:02.297Z,21.60
2018-08-18T01:05:29.701Z,21.70
2018-08-18T01:07:57.196Z,21.70
2018-08-18T01:10:24.665Z,21.70
2018-08-18T01:12:52.176Z,21.60
2018-08-18T01:15:25.160Z,21.60
2018-08-18T01:17:52.638Z,21.60
2018-08-18T01:20:20.076Z,21.60
2018-08-18T01:22:55.839Z,21.50
2018-08-18T01:25:24.072Z,21.40
2018-08-18T01:27:52.399Z,21.40
2018-08-18T01:30:19.871Z,21.50
2018-08-18T01:32:47.419Z,21.50
2018-08-18T01:35:14.805Z,21.50
2018-08-18T01:37:42.360Z,21.30
2018-08-18T01:40:09.888Z,21.20
2018-08-18T01:42:37.378Z,21.20
2018-08-18T01:45:04.860Z,21.10
2018-08-18T01:47:32.444Z,21.10
2018-08-18T01:50:04.428Z,21.10
2018-08-18T01:52:32.370Z,21.00
2018-08-18T01:54:59.848Z,20.80
2018-08-18T01:57:27.279Z,20.90
2018-08-18T01:59:54.803Z,21.10
2018-08-18T02:02:25.837Z,21.10
2018-08-18T02:04:53.868Z,21.10
2018-08-18T02:07:24.623Z,21.10
2018-08-18T02:09:52.272Z,21.00
2018-08-18T02:12:19.805Z,21.00
2018-08-18T02:14:47.165Z,21.00
2018-08-18T02:17:19.266Z,21.00
2018-08-18T02:19:47.115Z,20.90
2018-08-18T02:22:14.626Z,20.90
2018-08-18T02:24:42.840Z,20.90
2018-08-18T02:27:10.469Z,20.80
2018-08-18T02:29:38.023Z,20.70
2018-08-18T02:32:13.259Z,20.60
2018-08-18T02:34:40.692Z,20.40
2018-08-18T02:37:08.283Z,20.40
2018-08-18T02:39:35.772Z,20.50
2018-08-18T02:42:03.263Z,20.60
2018-08-18T02:44:30.676Z,20.60
2018-08-18T02:46:58.078Z,20.70
2018-08-18T02:49:26.981Z,20.70
2018-08-18T02:51:54.471Z,20.50
2018-08-18T02:54:21.851Z,20.50
2018-08-18T02:56:49.325Z,20.50
2018-08-18T02:59:16.782Z,20.50
2018-08-18T03:01:44.659Z,20.70
2018-08-18T03:04:13.222Z,20.60
2018-08-18T03:06:40.866Z,20.50
2018-08-18T03:09:09.991Z,20.50
2018-08-18T03:11:39.741Z,20.20
2018-08-18T03:14:07.463Z,20.20
2018-08-18T03:16:36.542Z,20.30
2018-08-18T03:19:04.025Z,20.30
2018-08-18T03:21:37.022Z,20.30
2018-08-18T03:24:22.760Z,20.10
2018-08-18T03:26:52.857Z,20.20
2018-08-18T03:29:21.460Z,20.30
2018-08-18T03:31:49.245Z,20.30
2018-08-18T03:34:17.047Z,20.30
2018-08-18T03:36:49.127Z,20.30
2018-08-18T03:39:24.963Z,20.20
2018-08-18T03:41:53.848Z,20.20
2018-08-18T03:44:21.432Z,20.20
2018-08-18T03:46:48.976Z,20.10
2018-08-18T03:49:16.497Z,20.30
2018-08-18T03:51:45.133Z,20.20
2018-08-18T03:54:13.173Z,20.00
2018-08-18T03:56:40.985Z,20.10
2018-08-18T03:59:08.516Z,20.10
2018-08-18T04:01:48.348Z,20.10
2018-08-18T04:04:16.616Z,20.00
2018-08-18T04:06:45.372Z,19.90
2018-08-18T04:09:17.321Z,19.80
2018-08-18T04:11:44.774Z,19.80
2018-08-18T04:14:12.243Z,19.80
2018-08-18T04:16:44.888Z,19.90
2018-08-18T04:19:12.453Z,19.80
2018-08-18T04:21:39.935Z,19.80
2018-08-18T04:24:07.387Z,19.70
2018-08-18T04:26:34.907Z,19.70
2018-08-18T04:29:02.367Z,19.60
2018-08-18T04:31:30.575Z,19.50
2018-08-18T04:33:59.280Z,19.50
2018-08-18T04:36:26.766Z,19.70
2018-08-18T04:38:54.220Z,19.70
2018-08-18T04:41:22.008Z,19.60
2018-08-18T04:43:49.687Z,19.60
2018-08-18T04:46:17.098Z,19.60
2018-08-18T04:48:44.585Z,19.60
2018-08-18T04:51:12.049Z,19.60
2018-08-18T04:53:39.446Z,19.60
2018-08-18T04:56:06.993Z,19.60
2018-08-18T04:58:34.427Z,19.50
2018-08-18T05:01:01.894Z,19.50
2018-08-18T05:03:29.328Z,19.40
2018-08-18T05:05:56.751Z,19.40
2018-08-18T05:08:24.297Z,19.50
2018-08-18T05:10:51.688Z,19.40
2018-08-18T05:13:19.230Z,19.30
2018-08-18T05:15:46.730Z,19.40
2018-08-18T05:18:14.264Z,19.60
2018-08-18T05:20:42.272Z,19.70
2018-08-18T05:23:19.947Z,19.70
2018-08-18T05:25:49.468Z,19.80
2018-08-18T05:28:16.987Z,19.90
2018-08-18T05:30:44.427Z,19.90
2018-08-18T05:33:11.919Z,19.70
2018-08-18T05:35:39.433Z,19.80
2018-08-18T05:38:37.380Z,20.00
2018-08-18T05:41:04.878Z,20.00
2018-08-18T05:43:36.254Z,19.90
2018-08-18T05:46:10.582Z,19.80
2018-08-18T05:48:38.049Z,19.90
2018-08-18T05:51:05.544Z,19.80
2018-08-18T05:53:34.071Z,19.90
2018-08-18T05:56:02.279Z,19.90
2018-08-18T05:58:45.742Z,20.10
2018-08-18T06:01:24.622Z,20.20
2018-08-18T06:03:57.060Z,20.40
2018-08-18T06:06:24.899Z,20.30
2018-08-18T06:08:52.351Z,20.40
2018-08-18T06:11:19.727Z,20.40
2018-08-18T06:13:47.225Z,20.50
2018-08-18T06:16:14.614Z,20.30
2018-08-18T06:18:41.959Z,20.30
2018-08-18T06:21:16.427Z,20.40
2018-08-18T06:23:49.397Z,20.50
2018-08-18T06:26:22.247Z,20.70
2018-08-18T06:28:52.011Z,20.70
2018-08-18T06:31:20.268Z,20.80
2018-08-18T06:33:47.804Z,20.80
2018-08-18T06:36:15.322Z,20.80
2018-08-18T06:51:47.956Z,20.80
2018-08-18T06:54:18.754Z,20.90
2018-08-18T06:56:47.089Z,20.80
2018-08-18T06:59:14.590Z,20.90
2018-08-18T07:01:42.064Z,20.90
2018-08-18T07:04:26.211Z,21.10
2018-08-18T07:06:53.628Z,21.30
2018-08-18T07:09:21.004Z,21.30
2018-08-18T07:11:48.463Z,21.30
2018-08-18T07:14:22.356Z,21.30
2018-08-18T07:16:50.042Z,21.30
2018-08-18T07:19:17.652Z,21.20
2018-08-18T07:21:45.085Z,21.30
2018-08-18T07:24:12.499Z,21.50
2018-08-18T07:26:40.025Z,21.70
2018-08-18T07:29:07.579Z,21.80
2018-08-18T07:31:34.950Z,21.80
2018-08-18T07:34:02.422Z,22.00
2018-08-18T07:36:30.056Z,22.00
2018-08-18T07:39:03.679Z,22.00
2018-08-18T07:41:31.280Z,22.00
2018-08-18T07:43:58.807Z,22.10
2018-08-18T07:46:26.352Z,22.20
2018-08-18T07:48:53.917Z,22.20
2018-08-18T07:51:21.867Z,22.40
2018-08-18T07:53:49.323Z,22.50
2018-08-18T07:56:17.593Z,22.50
2018-08-18T07:58:46.024Z,22.60
2018-08-18T08:01:13.498Z,22.60
2018-08-18T08:03:40.944Z,22.60
2018-08-18T08:06:08.595Z,22.80
2018-08-18T08:08:41.886Z,22.90
2018-08-18T08:11:12.273Z,23.10
2018-08-18T08:13:39.739Z,23.10
2018-08-18T08:16:07.227Z,23.20
2018-08-18T08:18:34.611Z,23.20
2018-08-18T08:21:02.028Z,23.20
2018-08-18T08:23:29.583Z,23.40
2018-08-18T08:25:57.676Z,23.40
2018-08-18T08:28:25.144Z,23.40
2018-08-18T08:30:52.641Z,23.40
2018-08-18T08:33:31.417Z,23.50
2018-08-18T08:35:58.852Z,23.40
2018-08-18T08:38:31.818Z,23.50
2018-08-18T08:40:59.336Z,23.60
2018-08-18T08:43:34.161Z,23.70
2018-08-18T08:46:01.633Z,23.90
2018-08-18T08:48:30.413Z,24.00
2018-08-18T08:50:57.873Z,24.00
2018-08-18T08:53:25.353Z,24.10
2018-08-18T08:55:52.817Z,24.10
2018-08-18T08:58:20.282Z,24.30
2018-08-18T09:00:47.714Z,24.20
2018-08-18T09:03:15.254Z,24.20
2018-08-18T09:05:42.716Z,24.30
2018-08-18T09:08:10.165Z,24.20
2018-08-18T09:10:37.710Z,24.30
2018-08-18T09:13:05.456Z,24.40
2018-08-18T09:15:32.895Z,24.50
2018-08-18T09:18:00.359Z,24.70
2018-08-18T09:20:29.805Z,24.80
2018-08-18T09:23:00.218Z,24.90
2018-08-18T09:25:29.086Z,25.00
2018-08-18T09:27:57.781Z,25.00
2018-08-18T09:30:27.356Z,25.10
2018-08-18T09:32:56.927Z,25.30
2018-08-18T09:35:24.433Z,25.50
2018-08-18T09:37:57.611Z,25.60
2018-08-18T09:40:26.001Z,25.90
2018-08-18T09:42:53.488Z,26.10
2018-08-18T09:45:21.077Z,26.20
2018-08-18T09:47:48.604Z,26.50
2018-08-18T09:50:16.213Z,26.80
2018-08-18T09:52:43.774Z,26.90
2018-08-18T09:55:11.395Z,26.60
2018-08-18T09:57:39.035Z,26.60
2018-08-18T10:00:11.796Z,26.80
2018-08-18T10:02:39.331Z,27.20
2018-08-18T10:05:06.852Z,27.60
2018-08-18T10:07:35.094Z,28.00
2018-08-18T10:13:22.411Z,28.30
2018-08-18T10:15:49.878Z,28.00
2018-08-18T10:18:17.293Z,28.00
2018-08-18T10:20:50.644Z,28.20
2018-08-18T10:23:18.474Z,28.50
2018-08-18T10:25:46.184Z,28.80
2018-08-18T10:28:13.614Z,29.10
2018-08-18T10:30:41.081Z,29.00
2018-08-18T10:33:08.595Z,28.90
2018-08-18T10:35:36.058Z,28.90
2018-08-18T10:38:04.889Z,29.00
2018-08-18T10:45:59.315Z,29.60
2018-08-18T10:48:26.901Z,29.60
2018-08-18T10:51:15.758Z,29.70
2018-08-18T10:53:43.335Z,29.50
2018-08-18T10:56:10.891Z,28.70
2018-08-18T10:58:50.090Z,28.90
2018-08-18T11:01:17.654Z,29.00
2018-08-18T11:03:45.041Z,29.50
2018-08-18T11:06:13.848Z,29.80
2018-08-18T11:08:41.350Z,30.20
2018-08-18T11:11:14.882Z,30.40
2018-08-18T11:13:42.274Z,30.60
2018-08-18T11:16:10.741Z,31.10
2018-08-18T11:18:38.175Z,31.40
2018-08-18T11:21:05.551Z,31.60
2018-08-18T11:23:49.257Z,31.60
2018-08-18T11:26:16.691Z,31.70
2018-08-18T11:28:44.308Z,31.60
2018-08-18T11:31:11.723Z,31.70
2018-08-18T11:33:40.649Z,31.60
2018-08-18T11:36:09.085Z,31.80
2018-08-18T11:38:36.627Z,31.80
2018-08-18T11:41:05.086Z,31.10
2018-08-18T11:43:37.780Z,30.40
2018-08-18T11:46:11.222Z,30.20
2018-08-18T11:48:38.964Z,30.40
2018-08-18T11:51:06.601Z,30.90
2018-08-18T12:06:47.387Z,31.30
2018-08-18T12:09:16.887Z,31.60
2018-08-18T12:11:44.459Z,31.90
2018-08-18T12:14:11.929Z,32.10
2018-08-18T12:16:39.915Z,32.20
2018-08-18T12:19:10.936Z,32.20
2018-08-18T12:21:45.915Z,32.50
2018-08-18T12:24:15.619Z,32.70
2018-08-18T12:27:15.435Z,32.90
2018-08-18T12:29:43.263Z,33.10
2018-08-18T12:32:15.556Z,32.90
2018-08-18T12:34:43.065Z,32.90
2018-08-18T12:37:12.457Z,33.10
2018-08-18T12:39:39.920Z,33.10
2018-08-18T12:42:07.451Z,33.30
2018-08-18T12:44:34.922Z,33.30
2018-08-18T12:47:02.882Z,32.90
2018-08-18T12:49:31.084Z,32.80
2018-08-18T12:51:58.562Z,32.90
2018-08-18T12:54:26.012Z,32.60
2018-08-18T12:56:53.420Z,32.60
2018-08-18T12:59:20.904Z,32.70
2018-08-18T13:02:09.456Z,32.60
2018-08-18T13:04:37.504Z,32.10
2018-08-18T13:07:05.024Z,31.80
2018-08-18T13:09:32.509Z,32.00
2018-08-18T13:12:01.231Z,32.30
2018-08-18T13:14:30.576Z,32.70
2018-08-18T13:16:58.064Z,32.90
2018-08-18T13:19:27.550Z,32.90
2018-08-18T13:21:54.971Z,32.90
2018-08-18T13:24:25.567Z,33.00
2018-08-18T13:26:53.127Z,33.20
2018-08-18T13:29:20.631Z,33.30
2018-08-18T13:31:48.108Z,33.30
2018-08-18T13:34:16.718Z,33.50
2018-08-18T13:36:45.126Z,33.40
2018-08-18T13:39:14.013Z,33.40
2018-08-18T13:41:42.606Z,33.10
2018-08-18T13:44:10.073Z,32.90
2018-08-18T13:46:44.054Z,33.00
2018-08-18T13:49:13.975Z,33.20
2018-08-18T13:51:41.516Z,33.00
2018-08-18T13:54:09.027Z,33.00
2018-08-18T13:56:36.451Z,32.80
2018-08-18T13:59:04.023Z,32.90
2018-08-18T14:01:35.029Z,33.20
2018-08-18T14:04:03.012Z,33.20
2018-08-18T14:06:37.098Z,33.30
2018-08-18T14:09:05.652Z,33.50
2018-08-18T14:11:33.086Z,33.60
2018-08-18T14:14:00.929Z,33.90
2018-08-18T14:16:29.170Z,33.60
2018-08-18T14:18:56.846Z,33.90
2018-08-18T14:21:24.269Z,33.60
2018-08-18T14:23:51.787Z,33.60
2018-08-18T14:26:19.297Z,33.30
2018-08-18T14:28:47.117Z,33.30
2018-08-18T14:31:15.127Z,33.50
2018-08-18T14:33:42.791Z,33.60
2018-08-18T14:36:11.163Z,33.60
2018-08-18T14:38:39.247Z,33.60
2018-08-18T14:41:06.858Z,33.30
2018-08-18T14:43:37.163Z,33.50
2018-08-18T14:46:06.091Z,33.30
2018-08-18T14:48:33.478Z,33.30
2018-08-18T14:51:00.950Z,33.20
2018-08-18T14:53:28.464Z,33.10
2018-08-18T14:55:55.848Z,33.20
2018-08-18T14:58:28.915Z,33.10
2018-08-18T15:01:14.310Z,33.50
2018-08-18T15:03:42.206Z,33.40
2018-08-18T15:06:10.428Z,33.20
2018-08-18T15:08:37.940Z,33.60
2018-08-18T15:11:06.760Z,33.50
2018-08-18T15:13:34.384Z,33.10
2018-08-18T15:16:01.927Z,33.60
2018-08-18T15:18:29.853Z,33.30
2018-08-18T15:20:57.443Z,33.50
2018-08-18T15:23:24.908Z,34.00
2018-08-18T15:25:52.402Z,34.00
2018-08-18T15:28:20.657Z,33.90
2018-08-18T15:30:53.503Z,34.20
2018-08-18T15:33:24.293Z,34.30
2018-08-18T15:35:51.760Z,34.00
2018-08-18T15:38:34.138Z,34.00
2018-08-18T15:41:01.730Z,33.90
2018-08-18T15:43:29.760Z,33.40
2018-08-18T15:46:00.203Z,33.20
2018-08-18T15:48:27.687Z,33.00
2018-08-18T15:50:55.256Z,33.40
2018-08-18T15:54:00.942Z,33.90
2018-08-18T15:56:29.613Z,34.20
2018-08-18T15:58:57.763Z,34.20
2018-08-18T16:01:26.383Z,34.20
2018-08-18T16:03:54.443Z,34.30
2018-08-18T16:06:22.051Z,34.40
2018-08-18T16:08:49.851Z,34.50
2018-08-18T16:11:17.203Z,34.00
2018-08-18T16:13:44.967Z,34.10
2018-08-18T16:16:12.558Z,33.80
2018-08-18T16:18:39.968Z,33.80
2018-08-18T16:21:23.111Z,33.40
2018-08-18T16:23:50.805Z,33.10
2018-08-18T16:26:30.622Z,33.10
2018-08-18T16:29:00.299Z,33.10
2018-08-18T16:31:28.411Z,33.00
2018-08-18T16:33:56.888Z,32.60
2018-08-18T16:36:26.410Z,32.40
2018-08-18T16:39:00.626Z,32.60
2018-08-18T16:41:32.843Z,32.50
2018-08-18T16:44:02.734Z,32.50
2018-08-18T16:46:31.266Z,32.20
2018-08-18T16:48:58.704Z,32.20
2018-08-18T16:51:26.546Z,32.00
2018-08-18T16:53:54.095Z,31.90
2018-08-18T16:56:28.767Z,31.80
2018-08-18T16:58:58.850Z,31.80
2018-08-18T17:01:26.550Z,31.70
2018-08-18T17:03:54.420Z,31.70
2018-08-18T17:06:24.968Z,31.60
2018-08-18T17:08:52.649Z,31.60
2018-08-18T17:11:20.094Z,31.50
2018-08-18T17:13:54.864Z,31.40
2018-08-18T17:16:22.364Z,31.20
2018-08-18T17:18:49.899Z,31.00
2018-08-18T17:21:17.323Z,31.10
2018-08-18T17:23:44.874Z,31.00
2018-08-18T17:26:14.656Z,31.00
2018-08-18T17:28:42.046Z,30.80
2018-08-18T17:31:09.504Z,30.60
2018-08-18T17:33:37.131Z,30.30
2018-08-18T17:36:04.559Z,30.20
2018-08-18T17:38:32.042Z,29.90
2018-08-18T17:40:59.635Z,29.80
2018-08-18T17:43:27.158Z,29.70
2018-08-18T17:45:56.694Z,29.60
2018-08-18T17:48:25.443Z,29.50
2018-08-18T17:50:53.474Z,29.40
2018-08-18T17:53:20.937Z,29.30
2018-08-18T17:55:54.078Z,29.20
2018-08-18T17:58:21.562Z,29.10
2018-08-18T18:00:49.043Z,29.00
2018-08-18T18:03:16.509Z,29.00
2018-08-18T18:05:43.959Z,29.00
2018-08-18T18:08:11.442Z,28.90
2018-08-18T18:10:39.130Z,28.80
2018-08-18T18:13:14.686Z,28.70
2018-08-18T18:15:42.739Z,28.70
2018-08-18T18:18:13.638Z,28.60
2018-08-18T18:20:42.362Z,28.60
2018-08-18T18:23:11.181Z,28.50
2018-08-18T18:25:38.834Z,28.50
2018-08-18T18:28:06.457Z,28.40
2018-08-18T18:30:33.856Z,28.40
2018-08-18T18:33:01.323Z,28.30
2018-08-18T18:35:29.396Z,28.30
2018-08-18T18:37:58.465Z,28.30
2018-08-18T18:40:26.311Z,28.20
2018-08-18T18:42:53.779Z,28.10
2018-08-18T18:45:23.305Z,28.00
2018-08-18T18:47:50.708Z,28.10
2018-08-18T18:50:18.766Z,28.00
2018-08-18T18:52:46.886Z,27.90
2018-08-18T18:55:15.006Z,27.80
2018-08-18T18:58:00.605Z,27.60
2018-08-18T19:00:28.843Z,27.60
2018-08-18T19:02:56.622Z,27.70
2018-08-18T19:05:25.146Z,27.70
2018-08-18T19:08:03.904Z,27.60
2018-08-18T19:10:31.504Z,27.60
2018-08-18T19:12:59.038Z,27.50
2018-08-18T19:15:27.764Z,27.40
2018-08-18T19:17:55.484Z,27.50
2018-08-18T19:20:25.784Z,27.40
2018-08-18T19:23:28.515Z,27.30
2018-08-18T19:25:56.054Z,27.30
2018-08-18T19:28:23.569Z,27.10
2018-08-18T19:30:50.991Z,27.10
2018-08-18T19:33:18.870Z,27.10
2018-08-18T19:35:50.371Z,27.00
2018-08-18T19:38:18.812Z,27.00
2018-08-18T19:40:47.470Z,26.90
2018-08-18T19:43:17.006Z,26.80
2018-08-18T19:45:45.008Z,26.90
2018-08-18T19:48:15.178Z,26.80
2018-08-18T19:50:52.519Z,26.60
2018-08-18T19:53:28.845Z,26.50
2018-08-18T19:55:57.548Z,26.50
2018-08-18T19:58:25.746Z,26.40
2018-08-18T20:00:53.711Z,26.40
2018-08-18T20:03:21.769Z,26.20
2018-08-18T20:05:49.410Z,26.10
2018-08-18T20:08:20.062Z,26.10
2018-08-18T20:10:53.159Z,26.00
2018-08-18T20:13:21.535Z,26.00
2018-08-18T20:15:51.116Z,25.90
2018-08-18T20:18:18.652Z,26.00
2018-08-18T20:20:46.524Z,26.10
2018-08-18T20:23:16.412Z,25.90
2018-08-18T20:25:44.854Z,26.00
2018-08-18T20:28:12.392Z,26.00
2018-08-18T20:30:39.847Z,25.80
2018-08-18T20:33:07.332Z,25.80
2018-08-18T20:35:34.742Z,25.80
2018-08-18T20:38:02.214Z,25.60
2018-08-18T20:40:29.767Z,25.70
2018-08-18T21:01:29.358Z,25.80
2018-08-18T21:04:21.765Z,25.60
2018-08-18T21:06:49.684Z,25.60
2018-08-18T21:09:27.422Z,25.60
2018-08-18T21:11:55.004Z,25.70
2018-08-18T21:14:53.016Z,25.60
2018-08-18T21:17:21.215Z,25.70
2018-08-18T21:19:50.244Z,25.80
2018-08-18T21:22:17.832Z,25.80
2018-08-18T21:24:45.386Z,25.80
2018-08-18T21:27:12.945Z,25.80
2018-08-18T21:29:41.017Z,25.80
2018-08-18T21:32:08.467Z,25.70
2018-08-18T21:34:43.625Z,25.80
2018-08-18T21:37:11.023Z,25.80
2018-08-18T21:39:38.431Z,25.80
2018-08-18T21:42:05.904Z,25.80
2018-08-18T21:44:33.458Z,25.80
2018-08-18T21:47:00.924Z,25.60
2018-08-18T21:49:30.049Z,25.50
2018-08-18T21:51:57.564Z,25.50
2018-08-18T21:54:30.791Z,25.60
2018-08-18T21:57:01.876Z,25.60
2018-08-18T21:59:47.240Z,25.50
2018-08-18T22:02:14.869Z,25.30
2018-08-18T22:04:42.443Z,25.30
2018-08-18T22:07:32.295Z,25.40
2018-08-18T22:10:16.390Z,25.30
2018-08-18T22:12:43.993Z,25.30
2018-08-18T22:15:17.344Z,25.00
2018-08-18T22:17:58.462Z,24.80
2018-08-18T22:20:36.038Z,24.70
2018-08-18T22:23:06.071Z,24.80
2018-08-18T22:25:34.137Z,24.90
2018-08-18T22:28:01.660Z,24.70
2018-08-18T22:30:29.260Z,24.70
2018-08-18T22:33:06.655Z,24.60
2018-08-18T22:35:34.353Z,24.70
2018-08-18T22:40:55.238Z,24.70
2018-08-18T22:43:32.565Z,24.60
2018-08-18T22:46:00.020Z,24.50
2018-08-18T22:48:48.182Z,24.40
2018-08-18T22:51:15.784Z,24.30
2018-08-18T22:56:37.128Z,24.10
2018-08-18T23:01:57.251Z,24.00
2018-08-18T23:04:29.016Z,23.80
2018-08-18T23:06:57.157Z,23.80
2018-08-18T23:09:41.095Z,23.80
2018-08-18T23:12:08.549Z,23.70
2018-08-18T23:14:37.325Z,23.90
2018-08-18T23:17:13.056Z,23.80
2018-08-18T23:19:40.672Z,23.90
2018-08-18T23:22:19.476Z,24.00
2018-08-18T23:24:46.956Z,23.90
